Time;durP1;ratioP1;P1;durP2;ratioP2;P2;SDS_P1;SDS_P2;PMS_P1;PMS_P2;Temp;Humidity;BMP_temperature;BMP_pressure;BME280_temperature;BME280_humidity;BME280_pressure;Samples;Min_cycle;Max_cycle;Signal;HPM_P1;HPM_P2
2023/09/18 00:01:40;;;;;;;2.70;1.45;;;18.30;99.90;;;;;;5028140;28;20273;-79
2023/09/18 00:04:06;;;;;;;7.18;2.15;;;18.20;99.90;;;;;;5027599;28;20041;-79
2023/09/18 00:06:33;;;;;;;3.95;1.55;;;18.20;99.90;;;;;;5027433;28;20497;-78
2023/09/18 00:08:58;;;;;;;7.30;2.38;;;18.10;99.90;;;;;;5028707;28;20091;-78
2023/09/18 00:11:24;;;;;;;0.98;0.93;;;18.00;99.90;;;;;;5027559;28;20053;-78
2023/09/18 00:13:50;;;;;;;4.70;1.40;;;18.00;99.90;;;;;;5027605;28;20120;-78
2023/09/18 00:16:16;;;;;;;2.50;1.80;;;18.00;99.90;;;;;;5027775;28;20572;-78
2023/09/18 00:18:44;;;;;;;3.05;1.38;;;17.90;99.90;;;;;;5027882;28;20030;-77
2023/09/18 00:21:10;;;;;;;12.63;2.25;;;17.90;99.90;;;;;;5027710;28;20053;-79
2023/09/18 00:23:39;;;;;;;2.17;1.98;;;18.00;99.90;;;;;;5028147;28;20029;-78
2023/09/18 00:26:04;;;;;;;3.17;2.45;;;18.00;99.90;;;;;;5028733;28;20038;-79
2023/09/18 00:28:30;;;;;;;1.10;1.10;;;18.10;99.90;;;;;;5029262;28;20029;-77
2023/09/18 00:30:56;;;;;;;3.17;1.45;;;18.10;99.90;;;;;;5029171;28;20025;-78
2023/09/18 00:33:21;;;;;;;14.90;2.00;;;18.20;99.90;;;;;;5034017;28;20385;-79
2023/09/18 00:35:51;;;;;;;1.58;1.48;;;18.20;99.90;;;;;;5035119;28;20022;-78
2023/09/18 00:38:17;;;;;;;3.22;1.10;;;18.10;99.90;;;;;;5028072;28;20113;-78
2023/09/18 00:40:43;;;;;;;1.10;1.00;;;18.10;99.90;;;;;;5027376;28;20478;-78
2023/09/18 00:43:10;;;;;;;2.60;2.40;;;18.10;99.90;;;;;;5027382;28;20121;-78
2023/09/18 00:45:41;;;;;;;2.67;1.08;;;18.10;99.90;;;;;;5028734;28;20029;-79
2023/09/18 00:48:06;;;;;;;1.38;1.13;;;18.10;99.90;;;;;;5027143;28;20022;-78
2023/09/18 00:50:32;;;;;;;1.40;1.23;;;18.00;99.90;;;;;;5028341;28;20100;-77
2023/09/18 00:52:59;;;;;;;3.40;1.40;;;18.00;99.90;;;;;;5027386;28;20022;-78
2023/09/18 00:55:25;;;;;;;4.07;2.13;;;18.00;99.90;;;;;;5028849;28;20051;-78
2023/09/18 00:57:50;;;;;;;1.40;1.30;;;18.00;99.90;;;;;;5028738;28;20521;-78
2023/09/18 01:00:17;;;;;;;7.53;2.53;;;18.00;99.90;;;;;;5031066;28;20021;-78
2023/09/18 01:02:44;;;;;;;1.27;1.17;;;18.00;99.90;;;;;;5031226;28;20021;-77
2023/09/18 01:05:10;;;;;;;2.53;1.85;;;17.90;99.90;;;;;;5030620;28;20289;-78
2023/09/18 01:07:36;;;;;;;5.80;2.58;;;17.90;99.90;;;;;;5031085;28;20288;-79
2023/09/18 01:10:03;;;;;;;1.42;1.33;;;17.90;99.90;;;;;;5032503;28;20036;-78
2023/09/18 01:12:55;;;;;;;1.30;1.20;;;17.90;99.90;;;;;;5031375;28;20438;-78
2023/09/18 01:15:23;;;;;;;3.03;1.10;;;17.90;99.90;;;;;;5031180;28;20120;-78
2023/09/18 01:17:49;;;;;;;3.10;1.23;;;17.70;99.90;;;;;;5030849;28;20133;-78
2023/09/18 01:20:15;;;;;;;5.22;2.85;;;17.80;99.90;;;;;;5031673;28;20025;-79
2023/09/18 01:22:41;;;;;;;4.00;1.80;;;17.80;99.90;;;;;;5031648;28;20086;-79
2023/09/18 01:25:07;;;;;;;8.57;1.75;;;17.80;99.90;;;;;;5032481;28;20029;-80
2023/09/18 01:27:33;;;;;;;5.25;2.05;;;17.80;99.90;;;;;;5031467;28;20021;-80
2023/09/18 01:29:58;;;;;;;4.15;1.67;;;17.80;99.90;;;;;;5031057;28;20663;-79
2023/09/18 01:32:30;;;;;;;6.72;2.20;;;17.80;99.90;;;;;;5037598;28;20017;-80
2023/09/18 01:34:57;;;;;;;3.33;1.77;;;18.30;99.90;;;;;;5037849;28;20021;-79
2023/09/18 01:37:25;;;;;;;4.15;1.92;;;18.50;99.90;;;;;;5032718;28;20030;-79
2023/09/18 01:39:53;;;;;;;6.93;2.60;;;18.50;99.90;;;;;;5034789;28;20029;-79
2023/09/18 01:42:19;;;;;;;7.03;2.63;;;18.40;99.90;;;;;;5037051;28;20017;-80
2023/09/18 01:44:46;;;;;;;5.07;2.58;;;18.50;99.90;;;;;;5034297;28;20451;-78
2023/09/18 01:47:18;;;;;;;5.07;2.13;;;18.60;99.90;;;;;;5032548;28;20063;-79
2023/09/18 01:49:44;;;;;;;9.63;3.63;;;18.60;99.90;;;;;;5030542;28;20074;-78
2023/09/18 01:52:10;;;;;;;4.95;2.67;;;18.50;99.90;;;;;;5030923;28;20377;-78
2023/09/18 01:54:36;;;;;;;3.90;2.65;;;18.50;99.90;;;;;;5030361;28;20029;-78
2023/09/18 01:57:02;;;;;;;4.28;2.65;;;18.40;99.90;;;;;;5030330;28;20025;-78
2023/09/18 01:59:28;;;;;;;17.55;2.72;;;18.30;99.90;;;;;;5030723;28;20029;-79
2023/09/18 02:01:55;;;;;;;6.32;3.13;;;18.30;99.90;;;;;;5032463;28;20045;-79
2023/09/18 02:04:22;;;;;;;3.10;2.10;;;18.30;99.90;;;;;;5032433;28;20441;-78
2023/09/18 02:06:49;;;;;;;9.60;3.67;;;18.40;99.90;;;;;;5032667;28;20025;-79
2023/09/18 02:09:15;;;;;;;15.15;2.92;;;18.40;99.90;;;;;;5033958;28;20022;-78
2023/09/18 02:11:42;;;;;;;1.92;1.38;;;18.40;99.90;;;;;;5032609;28;20063;-79
2023/09/18 02:14:09;;;;;;;6.13;1.83;;;18.40;99.90;;;;;;5038279;28;20086;-78
2023/09/18 02:16:36;;;;;;;1.75;1.38;;;18.40;99.90;;;;;;5032206;28;20045;-79
2023/09/18 02:19:03;;;;;;;4.50;1.88;;;18.20;99.90;;;;;;5030627;28;20025;-76
2023/09/18 02:21:29;;;;;;;7.10;2.55;;;17.80;99.90;;;;;;5030248;28;20029;-77
2023/09/18 02:23:57;;;;;;;2.92;1.50;;;17.50;99.90;;;;;;5031142;28;20036;-77
2023/09/18 02:26:24;;;;;;;1.75;1.13;;;17.40;99.90;;;;;;5032106;28;20044;-78
2023/09/18 02:28:55;;;;;;;6.15;2.20;;;17.30;99.90;;;;;;5031609;28;20057;-79
2023/09/18 02:31:22;;;;;;;4.72;1.23;;;17.10;99.90;;;;;;5032729;28;20026;-79
2023/09/18 02:33:48;;;;;;;1.33;1.23;;;17.10;99.90;;;;;;5031399;28;20032;-78
2023/09/18 02:36:14;;;;;;;2.10;1.10;;;17.00;99.90;;;;;;5031611;28;20025;-77
2023/09/18 02:38:40;;;;;;;2.90;1.15;;;17.00;99.90;;;;;;5031383;28;20032;-77
2023/09/18 02:41:05;;;;;;;3.78;1.15;;;17.00;99.90;;;;;;5032249;28;20056;-78
2023/09/18 02:43:31;;;;;;;5.63;1.30;;;16.90;99.90;;;;;;5032679;28;20025;-78
2023/09/18 02:45:57;;;;;;;1.65;1.02;;;16.90;99.90;;;;;;5034412;28;20044;-77
2023/09/18 02:48:23;;;;;;;2.47;1.30;;;16.90;99.90;;;;;;5035495;28;20025;-78
2023/09/18 02:50:48;;;;;;;1.92;1.40;;;16.90;99.90;;;;;;5034664;28;20032;-78
2023/09/18 02:53:24;;;;;;;7.65;1.42;;;16.90;99.90;;;;;;5035865;28;20025;-78
2023/09/18 02:55:55;;;;;;;1.15;0.75;;;16.90;99.90;;;;;;5036513;28;20025;-80
2023/09/18 02:58:22;;;;;;;1.60;0.80;;;16.90;99.90;;;;;;5031398;28;20548;-77
2023/09/18 03:00:50;;;;;;;27.35;1.20;;;16.90;99.90;;;;;;5029646;28;20291;-80
2023/09/18 03:03:17;;;;;;;2.78;0.77;;;17.00;99.90;;;;;;5028896;28;20104;-79
2023/09/18 03:05:43;;;;;;;1.13;0.88;;;17.00;99.90;;;;;;5028625;28;20037;-79
2023/09/18 03:08:10;;;;;;;1.30;1.05;;;16.90;99.90;;;;;;5029361;28;20026;-81
2023/09/18 03:10:39;;;;;;;0.50;0.50;;;16.90;99.90;;;;;;5029186;28;20536;-79
2023/09/18 03:13:06;;;;;;;0.70;0.60;;;16.90;99.90;;;;;;5030432;28;20026;-78
2023/09/18 03:15:32;;;;;;;0.60;0.50;;;16.90;99.90;;;;;;5030019;28;20034;-78
2023/09/18 03:17:59;;;;;;;1.08;0.50;;;16.80;99.90;;;;;;5028871;28;20458;-79
2023/09/18 03:20:26;;;;;;;1.00;0.82;;;16.70;99.90;;;;;;5029543;28;20021;-78
2023/09/18 03:22:52;;;;;;;0.65;0.65;;;16.80;99.90;;;;;;5028956;28;20066;-78
2023/09/18 03:25:18;;;;;;;0.75;0.75;;;16.70;99.90;;;;;;5040430;28;20048;-80
2023/09/18 03:27:43;;;;;;;0.55;0.55;;;16.70;99.90;;;;;;5037806;28;20017;-79
2023/09/18 03:30:12;;;;;;;0.47;0.47;;;16.70;99.90;;;;;;5029719;28;20048;-78
2023/09/18 03:32:38;;;;;;;0.77;0.50;;;16.80;99.90;;;;;;5028396;28;20048;-78
2023/09/18 03:35:04;;;;;;;0.50;0.50;;;16.80;99.90;;;;;;5029309;28;20312;-78
2023/09/18 03:37:30;;;;;;;1.88;0.50;;;16.90;99.90;;;;;;5029749;28;20120;-78
2023/09/18 03:39:56;;;;;;;0.90;0.60;;;16.90;99.90;;;;;;5028346;28;20091;-79
2023/09/18 03:42:21;;;;;;;0.50;0.50;;;17.00;99.90;;;;;;5029915;28;20474;-80
2023/09/18 03:44:47;;;;;;;1.10;0.77;;;17.00;99.90;;;;;;5029465;28;20116;-79
2023/09/18 03:47:12;;;;;;;1.70;0.73;;;17.10;99.90;;;;;;5029348;28;20060;-79
2023/09/18 03:49:38;;;;;;;1.55;1.30;;;16.90;99.90;;;;;;5028090;28;20437;-78
2023/09/18 03:52:04;;;;;;;5.88;1.13;;;16.80;99.90;;;;;;5027946;28;20183;-79
2023/09/18 03:54:29;;;;;;;9.23;1.42;;;16.90;99.90;;;;;;5027961;28;20033;-78
2023/09/18 03:56:55;;;;;;;2.65;1.10;;;17.00;99.90;;;;;;5027943;28;20018;-79
2023/09/18 03:59:21;;;;;;;1.17;0.95;;;16.90;99.90;;;;;;5027644;28;20029;-79
2023/09/18 04:01:46;;;;;;;3.83;1.88;;;16.80;99.90;;;;;;5027110;28;20044;-80
2023/09/18 04:04:12;;;;;;;1.75;0.90;;;16.80;99.90;;;;;;5027436;28;20029;-78
2023/09/18 04:06:42;;;;;;;1.08;0.95;;;16.80;99.90;;;;;;5027141;28;20033;-78
2023/09/18 04:09:08;;;;;;;3.17;1.40;;;16.90;99.90;;;;;;5027931;28;20021;-79
2023/09/18 04:11:34;;;;;;;0.98;0.52;;;16.80;99.90;;;;;;5028752;28;20462;-77
2023/09/18 04:14:01;;;;;;;3.20;1.60;;;16.80;99.90;;;;;;5028033;28;20502;-78
2023/09/18 04:16:37;;;;;;;2.60;1.38;;;16.80;99.90;;;;;;5029185;28;20120;-78
2023/09/18 04:19:03;;;;;;;2.42;0.80;;;16.80;99.90;;;;;;5027528;28;20064;-79
2023/09/18 04:21:29;;;;;;;2.63;1.30;;;16.80;99.90;;;;;;5028655;28;20034;-79
2023/09/18 04:23:57;;;;;;;5.47;1.17;;;16.80;99.90;;;;;;5027384;28;20056;-79
2023/09/18 04:26:30;;;;;;;1.15;0.95;;;16.80;99.90;;;;;;5028015;28;20160;-79
2023/09/18 04:29:00;;;;;;;0.55;0.45;;;16.90;99.90;;;;;;5027700;28;20025;-77
2023/09/18 04:31:27;;;;;;;1.55;1.45;;;16.80;99.90;;;;;;5027647;28;20076;-78
2023/09/18 04:33:52;;;;;;;1.35;1.10;;;16.80;99.90;;;;;;5031417;28;20036;-80
2023/09/18 04:36:18;;;;;;;2.92;1.17;;;16.80;99.90;;;;;;5031668;28;20030;-78
2023/09/18 04:38:44;;;;;;;1.45;1.33;;;16.80;99.90;;;;;;5031786;28;20025;-78
2023/09/18 04:41:10;;;;;;;1.58;0.65;;;16.90;99.90;;;;;;5033063;28;20021;-78
2023/09/18 04:43:38;;;;;;;1.55;1.13;;;16.80;99.90;;;;;;5033009;28;20030;-78
2023/09/18 04:46:04;;;;;;;3.67;0.82;;;16.90;99.90;;;;;;5032812;28;20034;-78
2023/09/18 04:48:31;;;;;;;1.45;1.35;;;16.80;99.90;;;;;;5031707;28;20025;-78
2023/09/18 04:51:00;;;;;;;2.95;1.45;;;16.90;99.90;;;;;;5031468;28;20526;-77
2023/09/18 04:53:29;;;;;;;;;;;16.90;99.90;;;;;;5031961;28;20017;-78
2023/09/18 04:55:55;;;;;;;5.07;1.50;;;16.90;99.90;;;;;;5031334;28;19905;-78
2023/09/18 04:58:21;;;;;;;0.85;0.80;;;16.90;99.90;;;;;;5031040;28;20162;-79
2023/09/18 05:00:53;;;;;;;1.02;0.93;;;16.80;99.90;;;;;;5032337;28;20033;-78
2023/09/18 05:03:18;;;;;;;3.35;1.67;;;16.90;99.90;;;;;;5033086;28;20080;-80
2023/09/18 05:05:44;;;;;;;3.65;1.25;;;16.90;99.90;;;;;;5032140;28;20037;-78
2023/09/18 05:08:10;;;;;;;1.55;1.45;;;16.90;99.90;;;;;;5032656;28;20057;-78
2023/09/18 05:10:36;;;;;;;1.95;1.55;;;16.90;99.90;;;;;;5032421;28;20030;-78
2023/09/18 05:13:02;;;;;;;2.00;1.45;;;16.90;99.90;;;;;;5032558;28;20512;-77
2023/09/18 05:15:32;;;;;;;6.80;1.58;;;16.90;99.90;;;;;;5030793;28;20036;-78
2023/09/18 05:17:58;;;;;;;;;;;17.00;99.90;;;;;;5032595;28;20048;-77
2023/09/18 05:20:25;;;;;;;7.18;1.27;;;16.90;99.90;;;;;;5031982;28;19909;-78
2023/09/18 05:22:54;;;;;;;1.45;0.80;;;17.00;99.90;;;;;;5034699;28;20363;-78
2023/09/18 05:25:23;;;;;;;;;;;17.10;99.90;;;;;;5032607;28;20048;-78
2023/09/18 05:27:55;;;;;;;2.63;0.90;;;16.80;99.90;;;;;;5030558;28;19905;-79
2023/09/18 05:30:40;;;;;;;4.30;1.40;;;17.00;99.90;;;;;;5035711;28;20493;-79
2023/09/18 05:33:07;;;;;;;3.92;1.65;;;17.10;99.90;;;;;;5029157;28;20025;-78
2023/09/18 05:35:43;;;;;;;2.67;1.63;;;17.00;99.90;;;;;;5030938;28;20476;-80
2023/09/18 05:38:10;;;;;;;1.67;1.58;;;17.20;99.90;;;;;;5040852;28;20025;-77
2023/09/18 05:40:36;;;;;;;4.88;2.22;;;17.30;99.90;;;;;;5047493;28;20041;-78
2023/09/18 05:43:02;;;;;;;3.63;2.08;;;17.40;99.90;;;;;;5037650;28;20028;-83
2023/09/18 05:45:28;;;;;;;5.82;2.55;;;17.40;99.90;;;;;;5031766;28;20029;-76
2023/09/18 05:48:03;;;;;;;11.93;1.52;;;17.40;99.90;;;;;;5032133;28;20492;-76
2023/09/18 05:50:31;;;;;;;8.35;2.22;;;17.30;99.90;;;;;;5029412;28;20021;-73
2023/09/18 05:53:00;;;;;;;1.52;1.40;;;17.70;99.90;;;;;;5029881;28;20021;-78
2023/09/18 05:55:32;;;;;;;4.22;2.50;;;17.30;99.90;;;;;;5030180;28;20331;-80
2023/09/18 05:57:58;;;;;;;21.98;1.88;;;17.30;99.90;;;;;;5028448;28;20025;-79
2023/09/18 06:00:24;;;;;;;2.08;1.50;;;17.30;99.90;;;;;;5028448;28;20033;-81
2023/09/18 06:02:51;;;;;;;4.00;1.58;;;17.30;99.90;;;;;;5030338;28;20459;-78
2023/09/18 06:05:17;;;;;;;3.00;1.73;;;17.40;99.90;;;;;;5029336;28;20037;-79
2023/09/18 06:07:44;;;;;;;5.03;1.38;;;17.30;99.90;;;;;;5030206;28;20025;-78
2023/09/18 06:10:10;;;;;;;5.57;2.10;;;17.20;99.90;;;;;;5030071;28;20029;-78
2023/09/18 06:12:39;;;;;;;3.58;2.05;;;17.30;99.90;;;;;;5029656;28;20323;-78
2023/09/18 06:15:11;;;;;;;2.83;1.45;;;17.20;99.90;;;;;;5032207;28;20026;-79
2023/09/18 06:17:44;;;;;;;3.03;1.00;;;17.30;99.90;;;;;;5032721;28;20049;-81
2023/09/18 06:20:12;;;;;;;2.22;1.83;;;17.30;99.90;;;;;;5029082;28;20050;-83
2023/09/18 06:22:39;;;;;;;3.75;1.75;;;17.30;99.90;;;;;;5025846;28;20079;-86
2023/09/18 06:25:13;;;;;;;1.00;0.95;;;17.20;99.90;;;;;;5029354;28;20038;-85
2023/09/18 06:27:38;;;;;;;1.48;1.27;;;17.20;99.90;;;;;;5033201;28;20018;-81
2023/09/18 06:30:08;;;;;;;2.88;1.05;;;17.20;99.90;;;;;;5029293;28;20021;-81
2023/09/18 06:32:33;;;;;;;4.43;0.98;;;17.20;99.90;;;;;;5029108;28;20018;-81
2023/09/18 06:35:00;;;;;;;5.35;2.55;;;17.30;99.90;;;;;;5031891;28;20029;-84
2023/09/18 06:37:26;;;;;;;8.40;2.08;;;17.40;99.90;;;;;;5030195;28;20474;-84
2023/09/18 06:39:52;;;;;;;10.85;1.50;;;17.40;99.90;;;;;;5030654;28;20034;-85
2023/09/18 06:42:18;;;;;;;1.20;0.88;;;17.30;99.90;;;;;;5030301;28;20433;-81
2023/09/18 06:44:43;;;;;;;2.90;1.27;;;17.40;99.90;;;;;;5030994;28;20065;-86
2023/09/18 06:47:09;;;;;;;6.63;1.90;;;17.40;99.90;;;;;;5031668;28;20025;-84
2023/09/18 06:49:35;;;;;;;2.40;1.00;;;17.30;99.90;;;;;;5029202;28;20109;-80
2023/09/18 06:52:00;;;;;;;7.38;2.78;;;17.30;99.90;;;;;;5028936;28;20026;-79
2023/09/18 06:54:26;;;;;;;1.50;1.17;;;17.20;99.90;;;;;;5028521;28;20044;-79
2023/09/18 06:56:52;;;;;;;1.02;1.02;;;17.30;99.90;;;;;;5029598;28;20025;-79
2023/09/18 06:59:17;;;;;;;3.17;1.45;;;17.30;99.90;;;;;;5030085;28;20532;-78
2023/09/18 07:01:43;;;;;;;1.27;1.20;;;17.30;99.90;;;;;;5028816;28;20036;-78
2023/09/18 07:04:09;;;;;;;1.73;1.02;;;17.30;99.90;;;;;;5028599;28;20041;-78
2023/09/18 07:06:35;;;;;;;0.77;0.77;;;17.40;99.90;;;;;;5029824;28;20026;-78
2023/09/18 07:09:01;;;;;;;2.13;1.13;;;17.30;99.90;;;;;;5028741;28;20036;-81
2023/09/18 07:11:27;;;;;;;3.92;1.55;;;17.30;99.90;;;;;;5028721;28;20451;-80
2023/09/18 07:13:53;;;;;;;5.10;1.33;;;17.30;99.90;;;;;;5030576;28;20021;-79
2023/09/18 07:16:18;;;;;;;2.72;1.75;;;17.20;99.90;;;;;;5028328;28;20073;-74
2023/09/18 07:18:44;;;;;;;1.80;0.88;;;17.10;99.90;;;;;;5029794;28;20486;-73
2023/09/18 07:21:09;;;;;;;1.00;0.88;;;17.10;99.90;;;;;;5027231;28;20025;-73
2023/09/18 07:23:37;;;;;;;1.40;1.25;;;17.20;99.90;;;;;;5017986;28;20413;-73
2023/09/18 07:26:03;;;;;;;0.57;0.57;;;17.30;99.90;;;;;;5027436;28;20502;-79
2023/09/18 07:28:28;;;;;;;1.60;1.48;;;17.30;99.90;;;;;;5029383;28;20041;-77
2023/09/18 07:30:54;;;;;;;1.00;1.00;;;17.40;99.90;;;;;;5029373;28;20021;-75
2023/09/18 07:33:20;;;;;;;1.15;0.77;;;17.40;99.90;;;;;;5029426;28;20025;-76
2023/09/18 07:35:51;;;;;;;1.30;0.75;;;17.40;99.90;;;;;;5028901;28;20356;-75
2023/09/18 07:38:19;;;;;;;5.13;1.80;;;17.50;99.90;;;;;;5029373;28;20025;-77
2023/09/18 07:40:45;;;;;;;1.05;0.93;;;17.50;99.90;;;;;;5029188;28;20022;-76
2023/09/18 07:43:11;;;;;;;2.20;1.08;;;17.50;99.90;;;;;;5029073;28;20114;-76
2023/09/18 07:45:40;;;;;;;2.13;1.27;;;17.50;99.90;;;;;;5028189;28;20087;-77
2023/09/18 07:48:08;;;;;;;6.30;0.80;;;17.40;99.90;;;;;;5029683;28;20144;-76
2023/09/18 07:50:35;;;;;;;3.93;1.17;;;17.20;99.90;;;;;;5027489;28;20076;-78
2023/09/18 07:53:03;;;;;;;4.57;1.42;;;17.10;99.90;;;;;;5029444;28;20592;-81
2023/09/18 07:55:29;;;;;;;6.47;1.50;;;17.20;99.90;;;;;;5029664;28;20029;-77
2023/09/18 07:57:56;;;;;;;1.20;0.98;;;17.10;99.90;;;;;;5029359;28;20036;-78
2023/09/18 08:00:22;;;;;;;0.85;0.85;;;17.00;99.90;;;;;;5029536;28;20025;-78
2023/09/18 08:02:54;;;;;;;0.75;0.73;;;17.10;99.90;;;;;;5028072;28;20018;-78
2023/09/18 08:05:20;;;;;;;1.98;0.93;;;17.00;99.90;;;;;;5030178;28;20504;-78
2023/09/18 08:07:47;;;;;;;0.93;0.90;;;17.00;99.90;;;;;;5028490;28;20049;-78
2023/09/18 08:10:13;;;;;;;0.88;0.88;;;17.00;99.90;;;;;;5027906;28;20047;-79
2023/09/18 08:12:39;;;;;;;8.35;0.98;;;17.00;99.90;;;;;;5029472;28;20462;-78
2023/09/18 08:15:06;;;;;;;0.77;0.77;;;17.00;99.90;;;;;;5027892;28;20033;-78
2023/09/18 08:17:32;;;;;;;0.75;0.55;;;16.90;99.90;;;;;;5028591;28;20045;-77
2023/09/18 08:19:58;;;;;;;2.10;0.65;;;16.90;99.90;;;;;;5028683;28;20025;-79
2023/09/18 08:22:24;;;;;;;0.90;0.55;;;16.80;99.90;;;;;;5029004;28;20044;-79
2023/09/18 08:24:52;;;;;;;0.43;0.43;;;16.80;99.90;;;;;;5029091;28;20437;-79
2023/09/18 08:27:18;;;;;;;1.80;0.75;;;16.80;99.90;;;;;;5029063;28;20288;-79
2023/09/18 08:29:47;;;;;;;2.55;1.10;;;16.70;99.90;;;;;;5027848;28;20032;-78
2023/09/18 08:32:13;;;;;;;0.88;0.88;;;16.70;99.90;;;;;;5029192;28;20542;-78
2023/09/18 08:34:38;;;;;;;0.52;0.50;;;16.80;99.90;;;;;;5027103;28;20061;-79
2023/09/18 08:37:04;;;;;;;0.43;0.43;;;16.80;99.90;;;;;;5027879;28;20052;-79
2023/09/18 08:39:32;;;;;;;1.42;0.60;;;16.70;99.90;;;;;;5029148;28;20060;-79
2023/09/18 08:42:02;;;;;;;1.83;1.15;;;16.60;99.90;;;;;;5028498;28;20022;-78
2023/09/18 08:44:28;;;;;;;2.58;1.10;;;16.50;99.90;;;;;;5029310;28;20024;-78
2023/09/18 08:46:57;;;;;;;0.47;0.47;;;16.50;99.90;;;;;;5029037;28;20034;-78
2023/09/18 08:49:23;;;;;;;;;;;16.60;99.90;;;;;;5029182;28;20474;-77
2023/09/18 08:51:51;;;;;;;0.73;0.63;;;16.60;99.90;;;;;;5029119;28;20284;-77
2023/09/18 08:54:16;;;;;;;3.40;1.25;;;16.60;99.90;;;;;;5030582;28;20044;-76
2023/09/18 08:56:42;;;;;;;0.68;0.60;;;16.50;99.90;;;;;;5037799;28;20104;-76
2023/09/18 08:59:08;;;;;;;3.42;1.40;;;16.60;99.90;;;;;;5029465;28;20022;-76
2023/09/18 09:01:33;;;;;;;0.70;0.70;;;16.60;99.90;;;;;;5030362;28;20029;-77
2023/09/18 09:04:00;;;;;;;1.65;0.52;;;16.60;99.90;;;;;;5039327;28;20026;-78
2023/09/18 09:06:26;;;;;;;1.33;0.75;;;16.50;99.90;;;;;;5036610;28;20128;-80
2023/09/18 09:08:52;;;;;;;0.60;0.60;;;16.60;99.90;;;;;;5031538;28;20084;-78
2023/09/18 09:11:19;;;;;;;1.02;0.65;;;16.70;99.90;;;;;;5029325;28;20025;-78
2023/09/18 09:13:45;;;;;;;4.20;0.70;;;16.80;99.90;;;;;;5027033;28;20116;-78
2023/09/18 09:16:12;;;;;;;3.78;0.63;;;16.80;99.90;;;;;;5026785;28;20204;-79
2023/09/18 09:18:50;;;;;;;0.73;0.73;;;16.90;99.90;;;;;;5028210;28;20041;-78
2023/09/18 09:21:16;;;;;;;0.50;0.50;;;17.10;99.90;;;;;;5032278;28;20034;-78
2023/09/18 09:23:53;;;;;;;0.93;0.60;;;17.20;99.90;;;;;;5030479;28;20389;-78
2023/09/18 09:26:22;;;;;;;0.50;0.50;;;17.30;99.90;;;;;;5030441;28;20375;-79
2023/09/18 09:28:48;;;;;;;0.63;0.60;;;17.40;99.90;;;;;;5030283;28;20049;-82
2023/09/18 09:31:27;;;;;;;10.88;1.60;;;17.40;99.90;;;;;;5032097;28;20124;-78
2023/09/18 09:33:56;;;;;;;;;;;17.40;99.90;;;;;;5030796;28;20053;-78
2023/09/18 09:36:24;;;;;;;0.43;0.43;;;17.40;99.90;;;;;;5030588;28;20008;-80
2023/09/18 09:38:55;;;;;;;2.83;0.57;;;17.30;99.90;;;;;;5031041;28;20048;-77
2023/09/18 09:41:21;;;;;;;3.50;1.38;;;17.30;99.90;;;;;;5032735;28;20037;-79
2023/09/18 09:43:47;;;;;;;0.47;0.30;;;17.30;99.90;;;;;;5031090;28;20566;-84
2023/09/18 09:46:17;;;;;;;3.03;1.02;;;17.30;99.90;;;;;;5031437;28;20045;-84
2023/09/18 09:48:59;;;;;;;1.02;0.90;;;17.30;99.90;;;;;;5031372;28;20025;-84
2023/09/18 09:51:24;;;;;;;0.75;0.75;;;17.30;99.90;;;;;;5031295;28;20071;-82
2023/09/18 09:53:51;;;;;;;7.32;2.05;;;17.20;99.90;;;;;;5034553;28;20026;-82
2023/09/18 10:00:50;;;;;;;3.80;1.25;;;17.20;99.90;;;;;;5060207;28;20025;-81
2023/09/18 10:03:09;;;;;;;3.53;1.13;;;17.20;99.90;;;;;;5021734;28;20028;-82
2023/09/18 10:05:57;;;;;;;1.95;1.60;;;17.20;99.90;;;;;;5041373;28;20486;-82
2023/09/18 10:08:28;;;;;;;2.65;1.25;;;17.30;99.90;;;;;;5029985;28;20632;-80
2023/09/18 10:10:56;;;;;;;1.60;1.25;;;17.50;99.90;;;;;;5030451;28;20105;-83
2023/09/18 10:13:43;;;;;;;0.85;0.65;;;17.60;99.90;;;;;;5031028;28;20394;-80
2023/09/18 10:16:11;;;;;;;1.55;1.25;;;17.70;99.90;;;;;;5031513;28;20065;-81
2023/09/18 10:18:59;;;;;;;1.67;0.93;;;18.00;99.90;;;;;;5031484;28;20025;-82
2023/09/18 10:21:41;;;;;;;1.70;0.43;;;18.30;99.90;;;;;;5029660;28;20030;-80
2023/09/18 10:24:09;;;;;;;0.40;0.40;;;18.60;99.90;;;;;;5029724;28;20021;-81
2023/09/18 10:26:48;;;;;;;0.60;0.37;;;18.60;99.90;;;;;;5029729;28;20051;-80
2023/09/18 10:29:15;;;;;;;1.15;1.05;;;18.90;99.90;;;;;;5031308;28;20253;-82
2023/09/18 10:31:43;;;;;;;5.40;0.93;;;19.00;99.90;;;;;;5029984;28;20152;-81
2023/09/18 10:34:12;;;;;;;1.13;0.90;;;19.10;99.90;;;;;;5029679;28;20108;-81
2023/09/18 10:36:41;;;;;;;1.42;1.20;;;19.20;99.90;;;;;;5030702;28;20279;-83
2023/09/18 10:39:12;;;;;;;0.57;0.50;;;19.30;99.90;;;;;;5031339;28;20543;-82
2023/09/18 10:41:39;;;;;;;0.77;0.60;;;19.40;99.90;;;;;;5031445;28;20166;-80
2023/09/18 10:44:05;;;;;;;3.17;0.85;;;19.50;99.90;;;;;;5030814;28;20024;-80
2023/09/18 10:46:32;;;;;;;1.42;0.65;;;19.70;99.90;;;;;;5029325;28;20064;-83
2023/09/18 10:48:59;;;;;;;1.75;1.05;;;19.90;99.90;;;;;;5029534;28;20029;-81
2023/09/18 10:51:27;;;;;;;13.43;1.15;;;20.20;99.90;;;;;;5030488;28;20084;-83
2023/09/18 10:53:52;;;;;;;0.47;0.30;;;20.30;99.90;;;;;;5030075;28;20032;-82
2023/09/18 10:56:21;;;;;;;1.10;0.40;;;20.40;99.90;;;;;;5029908;28;20026;-81
2023/09/18 10:58:55;;;;;;;1.65;0.55;;;20.80;99.90;;;;;;5029928;28;20478;-81
2023/09/18 11:01:23;;;;;;;5.40;1.25;;;21.00;99.90;;;;;;5029288;28;20040;-81
2023/09/18 11:03:50;;;;;;;1.20;0.75;;;21.00;99.90;;;;;;5029510;28;20377;-82
2023/09/18 11:06:17;;;;;;;1.13;0.95;;;21.00;99.90;;;;;;5029106;28;20045;-80
2023/09/18 11:08:48;;;;;;;2.65;0.75;;;21.10;99.90;;;;;;5029626;28;20021;-81
2023/09/18 11:11:20;;;;;;;0.50;0.50;;;21.30;99.90;;;;;;5029500;28;20116;-81
2023/09/18 11:13:53;;;;;;;2.35;0.60;;;21.40;99.90;;;;;;5029452;28;20033;-81
2023/09/18 11:16:28;;;;;;;2.72;0.70;;;21.60;99.90;;;;;;5029122;28;20474;-81
2023/09/18 11:19:06;;;;;;;1.17;1.02;;;21.70;99.90;;;;;;5029044;28;20031;-80
2023/09/18 11:21:34;;;;;;;1.05;0.60;;;22.10;99.90;;;;;;5028986;28;20017;-84
2023/09/18 11:24:05;;;;;;;1.55;0.65;;;22.00;99.90;;;;;;5029113;28;20052;-82
2023/09/18 11:26:32;;;;;;;2.13;0.40;;;21.80;99.90;;;;;;5029279;28;20457;-82
2023/09/18 11:29:15;;;;;;;2.08;0.60;;;21.60;99.90;;;;;;5029313;28;20076;-83
2023/09/18 11:31:44;;;;;;;0.50;0.50;;;21.50;99.90;;;;;;5029002;28;20041;-82
2023/09/18 11:34:15;;;;;;;1.20;0.95;;;21.70;99.90;;;;;;5028943;28;20089;-84
2023/09/18 11:36:41;;;;;;;1.80;1.05;;;22.00;99.90;;;;;;5028642;28;20025;-84
2023/09/18 11:39:07;;;;;;;3.58;0.95;;;22.20;99.90;;;;;;5030040;28;20029;-82
2023/09/18 11:41:36;;;;;;;0.20;0.20;;;22.40;99.90;;;;;;5028290;28;20104;-80
2023/09/18 11:44:27;;;;;;;0.70;0.70;;;22.40;99.90;;;;;;5029204;28;20548;-84
2023/09/18 11:46:54;;;;;;;2.15;0.98;;;22.70;99.90;;;;;;5018624;28;20030;-82
2023/09/18 11:49:27;;;;;;;0.63;0.30;;;22.80;99.90;;;;;;5028687;28;20559;-80
2023/09/18 11:51:53;;;;;;;0.20;0.20;;;22.90;99.90;;;;;;5033002;28;20030;-82
2023/09/18 11:54:20;;;;;;;2.72;0.50;;;23.10;99.90;;;;;;5047078;28;20033;-80
2023/09/18 11:56:46;;;;;;;1.27;0.30;;;23.40;99.90;;;;;;5034616;28;20029;-83
2023/09/18 11:59:12;;;;;;;3.83;1.20;;;23.60;99.90;;;;;;5029330;28;20036;-80
2023/09/18 12:01:46;;;;;;;0.85;0.60;;;23.70;99.90;;;;;;5028588;28;20060;-85
2023/09/18 12:04:12;;;;;;;4.45;0.43;;;24.10;99.90;;;;;;5030288;28;20387;-83
2023/09/18 12:06:41;;;;;;;0.35;0.35;;;24.60;99.90;;;;;;5029079;28;20025;-85
2023/09/18 12:09:12;;;;;;;1.70;0.75;;;25.00;99.90;;;;;;5029202;28;20029;-83
2023/09/18 12:11:42;;;;;;;0.52;0.20;;;24.90;99.90;;;;;;5029036;28;20540;-82
2023/09/18 12:14:07;;;;;;;0.30;0.20;;;24.60;99.90;;;;;;5029381;28;20030;-85
2023/09/18 12:16:40;;;;;;;4.00;0.50;;;24.40;99.90;;;;;;5029514;28;20052;-85
2023/09/18 12:19:08;;;;;;;1.30;0.30;;;24.30;99.90;;;;;;5029246;28;20033;-84
2023/09/18 12:21:40;;;;;;;0.93;0.30;;;24.80;99.90;;;;;;5029997;28;20041;-85
2023/09/18 12:24:06;;;;;;;1.52;0.50;;;26.00;99.90;;;;;;5028714;28;20048;-84
2023/09/18 12:26:32;;;;;;;1.65;0.40;;;27.40;99.90;;;;;;5029050;28;20041;-85
2023/09/18 12:28:59;;;;;;;0.70;0.35;;;27.90;99.90;;;;;;5028716;28;20105;-83
2023/09/18 12:31:25;;;;;;;2.30;0.85;;;28.30;97.20;;;;;;5028424;28;20032;-85
2023/09/18 12:33:51;;;;;;;2.38;0.40;;;28.60;96.20;;;;;;5030018;28;20116;-81
2023/09/18 12:36:20;;;;;;;2.03;0.50;;;28.50;95.30;;;;;;5032418;28;20056;-85
2023/09/18 12:39:03;;;;;;;0.17;0.17;;;27.70;96.40;;;;;;5034161;28;20122;-82
2023/09/18 12:41:30;;;;;;;1.08;0.40;;;27.20;95.80;;;;;;5033622;28;20378;-82
2023/09/18 12:43:56;;;;;;;3.75;0.88;;;26.60;96.40;;;;;;5028580;28;20026;-83
2023/09/18 12:46:23;;;;;;;1.40;0.82;;;26.40;97.20;;;;;;5028778;28;20132;-84
2023/09/18 12:48:48;;;;;;;0.55;0.43;;;25.90;96.90;;;;;;5034096;28;20369;-81
2023/09/18 12:51:16;;;;;;;0.20;0.20;;;25.90;98.00;;;;;;5034957;28;20024;-82
2023/09/18 12:53:41;;;;;;;0.20;0.20;;;25.70;96.50;;;;;;5037062;28;20048;-85
2023/09/18 12:56:10;;;;;;;0.30;0.30;;;25.40;99.70;;;;;;5033894;28;20021;-83